Airfield :
LOGIN :

Register | Disclaimer

   EN    FR    IT 

 










Legend :    VFR   Marginal VFR   IFR   Intensive IFR   Very Intensive IFR
Visi :
Ceiling :
>= 8 km
>= 3000ft
5 to 8 km
1000 to 3000 ft
1500m to 5 km
500 to 1000 ft
800 to 1500m
200 to 500 ft
< 800m
< 200 ft
Symbols :   Thunderstorms  Fog  Heavy snow  Heavy precipitations  Wind > 20 kt
SIGMETs :     Misc.  Thunderstorms  Icing  Turbulence  Mountain Waves  Volcanic Ashes







- Airport Elevation : 18 ft


LIPC - Cervia AFB Ravenna

CURRENT METAR :
  • 180707Z 25003KT 7000 BKN002 11/09 Q1020 RMK BKN VIS MIN 5000NE WIND THR11 25005KT WIND THR29 24006KT AMB

EXPIRED METARs :
  • 180655Z 25003KT 6000 SCT001 10/08 Q1020
  • 180611Z 27005KT 5000 BCFG BKN002 09/07 Q1020 RMK BKN VIS MIN 5000 WIND THR11 26004KT WIND THR29 25005KT AMB
  • 180555Z 28004KT 5000 2000N BCFG FEW001 08/06 Q1020
  • 180455Z 00000KT 3000 BR NSC 08/06 Q1020

TAF TAF LIPC
Valid from the 18 at 06:00 until the 18 at 15:00 UTC


180500Z 1806/1815 VRB03KT 3000 BR NSC
PROB30
TEMPO 1806/1808 0500 FG
BECMG 1808/1810 04006KT 8000 NSW
No reported NOTAMs for that airfield.



MET'MAP, your aeronautical weather chart ! - Copyright ORBIFLY December 2007 - Disclaimer

ORBIFLY MET'MAP TEAM :

Programming & Development : Alexandra Zaïnal
Concept & Development : Baudouin d'Aumeries
Co-Development & Prog : Marc-Olivier Méhu
Technical & hardware support : Manuel Goepfert

Contact : metmap@orbifly.com




SOURCES & CREDITS :

   NOAA